sensor_id;sensor_type;location;lat;lon;timestamp;P1;durP1;ratioP1;P2;durP2;ratioP2
14139;SDS011;7150;53.514;9.988;2023-04-03T00:01:29;2.07;;;1.40;;
14139;SDS011;7150;53.514;9.988;2023-04-03T00:03:55;3.87;;;1.53;;
14139;SDS011;7150;53.514;9.988;2023-04-03T00:06:21;5.93;;;1.93;;
14139;SDS011;7150;53.514;9.988;2023-04-03T00:08:47;2.80;;;1.43;;
14139;SDS011;7150;53.514;9.988;2023-04-03T00:11:13;3.20;;;1.60;;
14139;SDS011;7150;53.514;9.988;2023-04-03T00:13:39;4.90;;;1.77;;
14139;SDS011;7150;53.514;9.988;2023-04-03T00:16:05;5.00;;;1.63;;
14139;SDS011;7150;53.514;9.988;2023-04-03T00:18:31;4.90;;;1.67;;
14139;SDS011;7150;53.514;9.988;2023-04-03T00:20:57;4.80;;;1.83;;
14139;SDS011;7150;53.514;9.988;2023-04-03T00:23:23;3.87;;;2.23;;
14139;SDS011;7150;53.514;9.988;2023-04-03T00:25:49;3.53;;;1.50;;
14139;SDS011;7150;53.514;9.988;2023-04-03T00:28:17;5.43;;;2.00;;
14139;SDS011;7150;53.514;9.988;2023-04-03T00:30:42;4.00;;;1.70;;
14139;SDS011;7150;53.514;9.988;2023-04-03T00:33:09;6.97;;;1.90;;
14139;SDS011;7150;53.514;9.988;2023-04-03T00:35:39;3.53;;;1.40;;
14139;SDS011;7150;53.514;9.988;2023-04-03T00:38:05;5.57;;;2.03;;
14139;SDS011;7150;53.514;9.988;2023-04-03T00:40:35;4.43;;;2.00;;
14139;SDS011;7150;53.514;9.988;2023-04-03T00:43:02;8.30;;;1.77;;
14139;SDS011;7150;53.514;9.988;2023-04-03T00:45:40;2.50;;;1.50;;
14139;SDS011;7150;53.514;9.988;2023-04-03T00:48:08;5.33;;;1.80;;
14139;SDS011;7150;53.514;9.988;2023-04-03T00:50:39;5.33;;;1.90;;
14139;SDS011;7150;53.514;9.988;2023-04-03T00:53:06;6.23;;;1.70;;
14139;SDS011;7150;53.514;9.988;2023-04-03T00:55:35;4.67;;;1.70;;
14139;SDS011;7150;53.514;9.988;2023-04-03T00:58:02;6.40;;;1.90;;
14139;SDS011;7150;53.514;9.988;2023-04-03T01:00:28;2.93;;;1.50;;
14139;SDS011;7150;53.514;9.988;2023-04-03T01:02:54;5.43;;;1.90;;
14139;SDS011;7150;53.514;9.988;2023-04-03T01:05:20;4.70;;;1.77;;
14139;SDS011;7150;53.514;9.988;2023-04-03T01:07:46;2.57;;;1.30;;
14139;SDS011;7150;53.514;9.988;2023-04-03T01:10:14;4.47;;;1.40;;
14139;SDS011;7150;53.514;9.988;2023-04-03T01:12:42;3.70;;;1.50;;
14139;SDS011;7150;53.514;9.988;2023-04-03T01:15:11;3.87;;;1.77;;
14139;SDS011;7150;53.514;9.988;2023-04-03T01:17:40;2.67;;;1.73;;
14139;SDS011;7150;53.514;9.988;2023-04-03T01:25:35;3.47;;;1.70;;
14139;SDS011;7150;53.514;9.988;2023-04-03T01:28:13;3.20;;;1.80;;
14139;SDS011;7150;53.514;9.988;2023-04-03T01:30:43;3.57;;;1.80;;
14139;SDS011;7150;53.514;9.988;2023-04-03T01:33:30;4.70;;;1.50;;
14139;SDS011;7150;53.514;9.988;2023-04-03T01:35:56;5.30;;;1.60;;
14139;SDS011;7150;53.514;9.988;2023-04-03T01:38:21;4.27;;;2.03;;
14139;SDS011;7150;53.514;9.988;2023-04-03T01:40:47;4.87;;;2.20;;
14139;SDS011;7150;53.514;9.988;2023-04-03T01:43:12;6.23;;;1.80;;
14139;SDS011;7150;53.514;9.988;2023-04-03T01:45:38;5.30;;;1.57;;
14139;SDS011;7150;53.514;9.988;2023-04-03T01:48:03;2.07;;;1.27;;
14139;SDS011;7150;53.514;9.988;2023-04-03T01:50:30;3.40;;;1.87;;
14139;SDS011;7150;53.514;9.988;2023-04-03T01:52:55;2.43;;;1.57;;
14139;SDS011;7150;53.514;9.988;2023-04-03T01:55:21;2.90;;;1.50;;
14139;SDS011;7150;53.514;9.988;2023-04-03T01:57:46;5.73;;;1.80;;
14139;SDS011;7150;53.514;9.988;2023-04-03T02:00:12;7.47;;;2.37;;
14139;SDS011;7150;53.514;9.988;2023-04-03T02:02:38;2.33;;;1.53;;
14139;SDS011;7150;53.514;9.988;2023-04-03T02:05:04;3.63;;;1.83;;
14139;SDS011;7150;53.514;9.988;2023-04-03T02:07:30;3.23;;;1.50;;
14139;SDS011;7150;53.514;9.988;2023-04-03T02:09:56;4.53;;;2.00;;
14139;SDS011;7150;53.514;9.988;2023-04-03T02:12:21;4.67;;;1.80;;
14139;SDS011;7150;53.514;9.988;2023-04-03T02:14:47;2.97;;;1.93;;
14139;SDS011;7150;53.514;9.988;2023-04-03T02:17:12;5.10;;;1.90;;
14139;SDS011;7150;53.514;9.988;2023-04-03T02:19:38;7.07;;;1.93;;
14139;SDS011;7150;53.514;9.988;2023-04-03T02:22:03;4.30;;;1.40;;
14139;SDS011;7150;53.514;9.988;2023-04-03T02:24:29;3.90;;;1.30;;
14139;SDS011;7150;53.514;9.988;2023-04-03T02:26:55;3.30;;;1.60;;
14139;SDS011;7150;53.514;9.988;2023-04-03T02:29:21;2.87;;;1.27;;
14139;SDS011;7150;53.514;9.988;2023-04-03T02:31:47;3.20;;;1.57;;
14139;SDS011;7150;53.514;9.988;2023-04-03T02:34:12;2.87;;;1.30;;
14139;SDS011;7150;53.514;9.988;2023-04-03T02:36:38;4.33;;;1.30;;
14139;SDS011;7150;53.514;9.988;2023-04-03T02:39:04;4.30;;;1.57;;
14139;SDS011;7150;53.514;9.988;2023-04-03T02:41:30;5.30;;;1.60;;
14139;SDS011;7150;53.514;9.988;2023-04-03T02:44:00;6.93;;;1.57;;
14139;SDS011;7150;53.514;9.988;2023-04-03T02:46:26;2.23;;;1.50;;
14139;SDS011;7150;53.514;9.988;2023-04-03T02:48:52;5.57;;;1.47;;
14139;SDS011;7150;53.514;9.988;2023-04-03T02:51:17;2.97;;;1.37;;
14139;SDS011;7150;53.514;9.988;2023-04-03T02:53:43;3.13;;;1.67;;
14139;SDS011;7150;53.514;9.988;2023-04-03T02:56:08;4.27;;;1.83;;
14139;SDS011;7150;53.514;9.988;2023-04-03T02:58:34;2.57;;;1.50;;
14139;SDS011;7150;53.514;9.988;2023-04-03T03:01:00;3.60;;;1.60;;
14139;SDS011;7150;53.514;9.988;2023-04-03T03:03:26;5.13;;;1.73;;
14139;SDS011;7150;53.514;9.988;2023-04-03T03:06:00;3.83;;;1.47;;
14139;SDS011;7150;53.514;9.988;2023-04-03T03:08:30;4.67;;;1.50;;
14139;SDS011;7150;53.514;9.988;2023-04-03T03:10:56;5.70;;;1.97;;
14139;SDS011;7150;53.514;9.988;2023-04-03T03:13:21;3.57;;;1.30;;
14139;SDS011;7150;53.514;9.988;2023-04-03T03:15:47;6.07;;;2.17;;
14139;SDS011;7150;53.514;9.988;2023-04-03T03:18:12;3.30;;;1.70;;
14139;SDS011;7150;53.514;9.988;2023-04-03T03:20:38;5.70;;;1.57;;
14139;SDS011;7150;53.514;9.988;2023-04-03T03:23:03;5.43;;;1.70;;
14139;SDS011;7150;53.514;9.988;2023-04-03T03:25:29;2.47;;;1.50;;
14139;SDS011;7150;53.514;9.988;2023-04-03T03:27:54;5.33;;;1.90;;
14139;SDS011;7150;53.514;9.988;2023-04-03T03:30:20;6.07;;;1.60;;
14139;SDS011;7150;53.514;9.988;2023-04-03T03:32:45;2.77;;;1.63;;
14139;SDS011;7150;53.514;9.988;2023-04-03T03:35:11;3.70;;;1.60;;
14139;SDS011;7150;53.514;9.988;2023-04-03T03:37:37;5.13;;;2.00;;
14139;SDS011;7150;53.514;9.988;2023-04-03T03:40:02;3.77;;;1.80;;
14139;SDS011;7150;53.514;9.988;2023-04-03T03:42:28;3.10;;;1.63;;
14139;SDS011;7150;53.514;9.988;2023-04-03T03:44:53;2.93;;;1.77;;
14139;SDS011;7150;53.514;9.988;2023-04-03T03:47:19;4.30;;;1.93;;
14139;SDS011;7150;53.514;9.988;2023-04-03T03:49:45;4.93;;;1.70;;
14139;SDS011;7150;53.514;9.988;2023-04-03T03:52:10;6.40;;;1.90;;
14139;SDS011;7150;53.514;9.988;2023-04-03T03:54:36;3.17;;;1.70;;
14139;SDS011;7150;53.514;9.988;2023-04-03T03:57:02;5.10;;;2.07;;
14139;SDS011;7150;53.514;9.988;2023-04-03T03:59:28;4.03;;;1.90;;
14139;SDS011;7150;53.514;9.988;2023-04-03T04:01:53;6.40;;;2.03;;
14139;SDS011;7150;53.514;9.988;2023-04-03T04:04:19;6.13;;;1.80;;
14139;SDS011;7150;53.514;9.988;2023-04-03T04:06:45;3.40;;;1.97;;
14139;SDS011;7150;53.514;9.988;2023-04-03T04:09:10;4.07;;;2.03;;
14139;SDS011;7150;53.514;9.988;2023-04-03T04:11:36;4.57;;;1.90;;
14139;SDS011;7150;53.514;9.988;2023-04-03T04:14:02;2.87;;;1.83;;
14139;SDS011;7150;53.514;9.988;2023-04-03T04:16:27;5.87;;;2.23;;
14139;SDS011;7150;53.514;9.988;2023-04-03T04:18:53;3.53;;;1.70;;
14139;SDS011;7150;53.514;9.988;2023-04-03T04:21:18;4.73;;;1.70;;
14139;SDS011;7150;53.514;9.988;2023-04-03T04:23:44;5.60;;;1.87;;
14139;SDS011;7150;53.514;9.988;2023-04-03T04:26:09;3.97;;;1.53;;
14139;SDS011;7150;53.514;9.988;2023-04-03T04:28:35;3.93;;;1.50;;
14139;SDS011;7150;53.514;9.988;2023-04-03T04:31:00;2.43;;;1.30;;
14139;SDS011;7150;53.514;9.988;2023-04-03T04:33:26;2.67;;;1.60;;
14139;SDS011;7150;53.514;9.988;2023-04-03T04:35:51;3.97;;;1.53;;
14139;SDS011;7150;53.514;9.988;2023-04-03T04:38:17;4.03;;;1.57;;
14139;SDS011;7150;53.514;9.988;2023-04-03T04:40:42;5.50;;;1.60;;
14139;SDS011;7150;53.514;9.988;2023-04-03T04:43:08;2.90;;;1.40;;
14139;SDS011;7150;53.514;9.988;2023-04-03T04:45:33;5.03;;;1.80;;
14139;SDS011;7150;53.514;9.988;2023-04-03T04:47:59;3.07;;;1.70;;
14139;SDS011;7150;53.514;9.988;2023-04-03T04:50:25;5.83;;;1.67;;
14139;SDS011;7150;53.514;9.988;2023-04-03T04:52:50;5.60;;;1.70;;
14139;SDS011;7150;53.514;9.988;2023-04-03T04:55:16;3.30;;;1.97;;
14139;SDS011;7150;53.514;9.988;2023-04-03T04:57:41;3.20;;;1.53;;
14139;SDS011;7150;53.514;9.988;2023-04-03T05:00:07;3.77;;;1.67;;
14139;SDS011;7150;53.514;9.988;2023-04-03T05:02:33;3.23;;;1.70;;
14139;SDS011;7150;53.514;9.988;2023-04-03T05:04:58;2.97;;;1.47;;
14139;SDS011;7150;53.514;9.988;2023-04-03T05:07:24;3.67;;;1.70;;
14139;SDS011;7150;53.514;9.988;2023-04-03T05:09:49;3.07;;;1.50;;
14139;SDS011;7150;53.514;9.988;2023-04-03T05:12:15;5.10;;;1.77;;
14139;SDS011;7150;53.514;9.988;2023-04-03T05:14:41;4.60;;;1.97;;
14139;SDS011;7150;53.514;9.988;2023-04-03T05:17:07;5.57;;;2.40;;
14139;SDS011;7150;53.514;9.988;2023-04-03T05:19:32;6.03;;;1.67;;
14139;SDS011;7150;53.514;9.988;2023-04-03T05:21:58;2.10;;;1.40;;
14139;SDS011;7150;53.514;9.988;2023-04-03T05:24:23;5.00;;;2.07;;
14139;SDS011;7150;53.514;9.988;2023-04-03T05:26:49;2.97;;;1.73;;
14139;SDS011;7150;53.514;9.988;2023-04-03T05:29:15;2.27;;;1.50;;
14139;SDS011;7150;53.514;9.988;2023-04-03T05:31:40;5.30;;;1.80;;
14139;SDS011;7150;53.514;9.988;2023-04-03T05:34:06;4.00;;;1.90;;
14139;SDS011;7150;53.514;9.988;2023-04-03T05:36:31;2.73;;;1.80;;
14139;SDS011;7150;53.514;9.988;2023-04-03T05:38:57;6.03;;;1.90;;
14139;SDS011;7150;53.514;9.988;2023-04-03T05:41:22;2.10;;;1.50;;
14139;SDS011;7150;53.514;9.988;2023-04-03T05:43:48;3.27;;;1.90;;
14139;SDS011;7150;53.514;9.988;2023-04-03T05:46:17;3.50;;;1.73;;
14139;SDS011;7150;53.514;9.988;2023-04-03T05:48:44;4.87;;;1.87;;
14139;SDS011;7150;53.514;9.988;2023-04-03T05:51:17;3.60;;;1.60;;
14139;SDS011;7150;53.514;9.988;2023-04-03T05:53:45;6.23;;;1.70;;
14139;SDS011;7150;53.514;9.988;2023-04-03T05:56:11;4.13;;;1.83;;
14139;SDS011;7150;53.514;9.988;2023-04-03T05:58:37;3.80;;;1.70;;
14139;SDS011;7150;53.514;9.988;2023-04-03T06:01:02;2.33;;;1.50;;
14139;SDS011;7150;53.514;9.988;2023-04-03T06:03:28;7.23;;;1.97;;
14139;SDS011;7150;53.514;9.988;2023-04-03T06:05:54;3.20;;;1.47;;
14139;SDS011;7150;53.514;9.988;2023-04-03T06:08:19;3.70;;;1.67;;
14139;SDS011;7150;53.514;9.988;2023-04-03T06:10:45;3.90;;;1.73;;
14139;SDS011;7150;53.514;9.988;2023-04-03T06:13:11;2.77;;;1.30;;
14139;SDS011;7150;53.514;9.988;2023-04-03T06:15:37;3.63;;;1.70;;
14139;SDS011;7150;53.514;9.988;2023-04-03T06:18:04;2.93;;;1.50;;
14139;SDS011;7150;53.514;9.988;2023-04-03T06:20:30;5.53;;;1.90;;
14139;SDS011;7150;53.514;9.988;2023-04-03T06:22:56;4.10;;;1.80;;
14139;SDS011;7150;53.514;9.988;2023-04-03T06:25:21;3.00;;;1.40;;
14139;SDS011;7150;53.514;9.988;2023-04-03T06:27:47;3.73;;;2.30;;
14139;SDS011;7150;53.514;9.988;2023-04-03T06:30:12;8.13;;;1.90;;
14139;SDS011;7150;53.514;9.988;2023-04-03T06:32:38;3.43;;;1.93;;
14139;SDS011;7150;53.514;9.988;2023-04-03T06:35:04;4.17;;;1.67;;
14139;SDS011;7150;53.514;9.988;2023-04-03T06:37:30;5.33;;;1.70;;
14139;SDS011;7150;53.514;9.988;2023-04-03T06:39:57;2.77;;;1.43;;
14139;SDS011;7150;53.514;9.988;2023-04-03T06:42:23;5.00;;;1.80;;
14139;SDS011;7150;53.514;9.988;2023-04-03T06:44:48;4.60;;;2.00;;
14139;SDS011;7150;53.514;9.988;2023-04-03T06:47:14;3.47;;;1.70;;
14139;SDS011;7150;53.514;9.988;2023-04-03T06:49:41;7.03;;;1.60;;
14139;SDS011;7150;53.514;9.988;2023-04-03T06:52:07;7.13;;;2.00;;
14139;SDS011;7150;53.514;9.988;2023-04-03T06:54:33;3.20;;;1.50;;
14139;SDS011;7150;53.514;9.988;2023-04-03T06:56:59;3.63;;;1.50;;
14139;SDS011;7150;53.514;9.988;2023-04-03T06:59:24;4.87;;;1.57;;
14139;SDS011;7150;53.514;9.988;2023-04-03T07:01:50;5.20;;;1.50;;
14139;SDS011;7150;53.514;9.988;2023-04-03T07:04:16;3.37;;;1.27;;
14139;SDS011;7150;53.514;9.988;2023-04-03T07:06:43;2.93;;;1.60;;
14139;SDS011;7150;53.514;9.988;2023-04-03T07:09:09;4.03;;;1.33;;
14139;SDS011;7150;53.514;9.988;2023-04-03T07:11:35;4.37;;;1.50;;
14139;SDS011;7150;53.514;9.988;2023-04-03T07:14:01;2.97;;;1.37;;
14139;SDS011;7150;53.514;9.988;2023-04-03T07:16:27;3.77;;;1.50;;
14139;SDS011;7150;53.514;9.988;2023-04-03T07:18:55;3.43;;;1.40;;
14139;SDS011;7150;53.514;9.988;2023-04-03T07:21:22;4.17;;;1.03;;
14139;SDS011;7150;53.514;9.988;2023-04-03T07:23:47;3.83;;;1.47;;
14139;SDS011;7150;53.514;9.988;2023-04-03T07:26:13;1.80;;;1.07;;
14139;SDS011;7150;53.514;9.988;2023-04-03T07:28:38;2.83;;;1.40;;
14139;SDS011;7150;53.514;9.988;2023-04-03T07:31:06;1.70;;;0.83;;
14139;SDS011;7150;53.514;9.988;2023-04-03T07:33:33;3.67;;;0.77;;
14139;SDS011;7150;53.514;9.988;2023-04-03T07:36:00;2.80;;;1.23;;
14139;SDS011;7150;53.514;9.988;2023-04-03T07:38:25;2.77;;;1.53;;
14139;SDS011;7150;53.514;9.988;2023-04-03T07:40:51;3.63;;;1.33;;
14139;SDS011;7150;53.514;9.988;2023-04-03T07:43:18;1.73;;;1.07;;
14139;SDS011;7150;53.514;9.988;2023-04-03T07:45:45;2.47;;;0.90;;
14139;SDS011;7150;53.514;9.988;2023-04-03T07:48:14;4.83;;;1.40;;
14139;SDS011;7150;53.514;9.988;2023-04-03T07:50:40;7.33;;;1.00;;
14139;SDS011;7150;53.514;9.988;2023-04-03T07:53:07;2.33;;;0.90;;
14139;SDS011;7150;53.514;9.988;2023-04-03T07:55:32;3.13;;;1.50;;
14139;SDS011;7150;53.514;9.988;2023-04-03T07:57:58;3.10;;;1.07;;
14139;SDS011;7150;53.514;9.988;2023-04-03T08:00:24;2.77;;;0.90;;
14139;SDS011;7150;53.514;9.988;2023-04-03T08:02:50;1.33;;;1.03;;
14139;SDS011;7150;53.514;9.988;2023-04-03T08:05:19;1.07;;;0.93;;
14139;SDS011;7150;53.514;9.988;2023-04-03T08:07:46;4.00;;;1.20;;
14139;SDS011;7150;53.514;9.988;2023-04-03T08:10:12;2.03;;;0.90;;
14139;SDS011;7150;53.514;9.988;2023-04-03T08:12:39;2.70;;;1.00;;
14139;SDS011;7150;53.514;9.988;2023-04-03T08:15:04;2.57;;;1.43;;
14139;SDS011;7150;53.514;9.988;2023-04-03T08:17:31;2.00;;;1.20;;
14139;SDS011;7150;53.514;9.988;2023-04-03T08:19:57;3.90;;;1.20;;
14139;SDS011;7150;53.514;9.988;2023-04-03T08:22:22;3.27;;;1.20;;
14139;SDS011;7150;53.514;9.988;2023-04-03T08:24:48;2.00;;;1.13;;
14139;SDS011;7150;53.514;9.988;2023-04-03T08:27:13;1.20;;;0.80;;
14139;SDS011;7150;53.514;9.988;2023-04-03T08:29:38;2.47;;;1.20;;
14139;SDS011;7150;53.514;9.988;2023-04-03T08:32:05;4.03;;;1.30;;
14139;SDS011;7150;53.514;9.988;2023-04-03T08:34:30;2.20;;;0.90;;
14139;SDS011;7150;53.514;9.988;2023-04-03T08:36:59;2.00;;;1.10;;
14139;SDS011;7150;53.514;9.988;2023-04-03T08:39:25;2.00;;;1.00;;
14139;SDS011;7150;53.514;9.988;2023-04-03T08:41:51;1.80;;;0.97;;
14139;SDS011;7150;53.514;9.988;2023-04-03T08:47:10;1.53;;;0.93;;
14139;SDS011;7150;53.514;9.988;2023-04-03T08:49:43;3.87;;;1.07;;
14139;SDS011;7150;53.514;9.988;2023-04-03T08:52:15;3.23;;;1.17;;
14139;SDS011;7150;53.514;9.988;2023-04-03T08:55:04;2.73;;;0.83;;
14139;SDS011;7150;53.514;9.988;2023-04-03T08:57:36;1.33;;;0.83;;
14139;SDS011;7150;53.514;9.988;2023-04-03T09:00:28;4.03;;;0.90;;
14139;SDS011;7150;53.514;9.988;2023-04-03T09:02:55;4.57;;;1.37;;
14139;SDS011;7150;53.514;9.988;2023-04-03T09:05:35;2.97;;;1.00;;
14139;SDS011;7150;53.514;9.988;2023-04-03T09:10:37;2.43;;;0.90;;
14139;SDS011;7150;53.514;9.988;2023-04-03T09:16:04;3.20;;;1.90;;
14139;SDS011;7150;53.514;9.988;2023-04-03T09:19:02;2.30;;;0.80;;
14139;SDS011;7150;53.514;9.988;2023-04-03T09:21:44;2.70;;;1.20;;
14139;SDS011;7150;53.514;9.988;2023-04-03T09:24:10;2.00;;;0.90;;
14139;SDS011;7150;53.514;9.988;2023-04-03T09:26:41;1.50;;;0.83;;
14139;SDS011;7150;53.514;9.988;2023-04-03T09:29:12;2.13;;;0.77;;
14139;SDS011;7150;53.514;9.988;2023-04-03T09:31:43;0.77;;;0.77;;
14139;SDS011;7150;53.514;9.988;2023-04-03T09:34:19;2.57;;;0.90;;
14139;SDS011;7150;53.514;9.988;2023-04-03T09:36:49;2.10;;;0.97;;
14139;SDS011;7150;53.514;9.988;2023-04-03T09:39:23;1.10;;;0.80;;
14139;SDS011;7150;53.514;9.988;2023-04-03T09:42:02;2.80;;;1.07;;
14139;SDS011;7150;53.514;9.988;2023-04-03T09:44:40;1.23;;;0.70;;
14139;SDS011;7150;53.514;9.988;2023-04-03T09:47:17;2.10;;;0.83;;
14139;SDS011;7150;53.514;9.988;2023-04-03T09:52:44;1.10;;;0.70;;
14139;SDS011;7150;53.514;9.988;2023-04-03T09:55:20;2.30;;;1.07;;
14139;SDS011;7150;53.514;9.988;2023-04-03T09:57:54;3.07;;;1.23;;
14139;SDS011;7150;53.514;9.988;2023-04-03T10:00:25;1.87;;;0.87;;
14139;SDS011;7150;53.514;9.988;2023-04-03T10:02:55;2.17;;;1.00;;
14139;SDS011;7150;53.514;9.988;2023-04-03T10:05:26;2.77;;;0.80;;
14139;SDS011;7150;53.514;9.988;2023-04-03T10:07:52;2.43;;;0.97;;
14139;SDS011;7150;53.514;9.988;2023-04-03T10:10:38;2.00;;;0.90;;
14139;SDS011;7150;53.514;9.988;2023-04-03T10:13:16;1.10;;;0.87;;
14139;SDS011;7150;53.514;9.988;2023-04-03T10:15:51;3.07;;;1.20;;
14139;SDS011;7150;53.514;9.988;2023-04-03T10:21:13;2.33;;;0.93;;
14139;SDS011;7150;53.514;9.988;2023-04-03T10:23:50;1.70;;;0.80;;
14139;SDS011;7150;53.514;9.988;2023-04-03T10:26:43;1.53;;;0.90;;
14139;SDS011;7150;53.514;9.988;2023-04-03T10:32:21;2.93;;;1.00;;
14139;SDS011;7150;53.514;9.988;2023-04-03T10:38:09;1.70;;;0.70;;
14139;SDS011;7150;53.514;9.988;2023-04-03T10:40:52;2.37;;;0.73;;
14139;SDS011;7150;53.514;9.988;2023-04-03T10:43:29;1.97;;;1.10;;
14139;SDS011;7150;53.514;9.988;2023-04-03T10:46:13;2.33;;;1.13;;
14139;SDS011;7150;53.514;9.988;2023-04-03T10:48:55;3.43;;;1.00;;
14139;SDS011;7150;53.514;9.988;2023-04-03T10:51:45;1.23;;;0.80;;
14139;SDS011;7150;53.514;9.988;2023-04-03T10:54:22;2.27;;;0.60;;
14139;SDS011;7150;53.514;9.988;2023-04-03T10:57:09;1.10;;;0.70;;
14139;SDS011;7150;53.514;9.988;2023-04-03T11:02:16;1.77;;;0.90;;
14139;SDS011;7150;53.514;9.988;2023-04-03T11:05:07;1.27;;;0.87;;
14139;SDS011;7150;53.514;9.988;2023-04-03T11:07:43;3.33;;;1.20;;
14139;SDS011;7150;53.514;9.988;2023-04-03T11:10:15;1.77;;;1.00;;
14139;SDS011;7150;53.514;9.988;2023-04-03T11:15:50;2.00;;;1.00;;
14139;SDS011;7150;53.514;9.988;2023-04-03T11:18:19;1.40;;;0.80;;
14139;SDS011;7150;53.514;9.988;2023-04-03T11:20:56;1.87;;;0.70;;
14139;SDS011;7150;53.514;9.988;2023-04-03T11:23:49;0.57;;;0.57;;
14139;SDS011;7150;53.514;9.988;2023-04-03T11:26:17;2.47;;;0.97;;
14139;SDS011;7150;53.514;9.988;2023-04-03T11:28:45;1.53;;;1.10;;
14139;SDS011;7150;53.514;9.988;2023-04-03T11:34:24;3.27;;;1.20;;
14139;SDS011;7150;53.514;9.988;2023-04-03T11:36:57;2.83;;;1.00;;
14139;SDS011;7150;53.514;9.988;2023-04-03T11:39:34;5.10;;;1.13;;
14139;SDS011;7150;53.514;9.988;2023-04-03T11:42:13;1.40;;;0.80;;
14139;SDS011;7150;53.514;9.988;2023-04-03T11:44:48;1.37;;;0.83;;
14139;SDS011;7150;53.514;9.988;2023-04-03T11:47:43;1.93;;;1.13;;
14139;SDS011;7150;53.514;9.988;2023-04-03T11:50:12;3.80;;;1.87;;
14139;SDS011;7150;53.514;9.988;2023-04-03T12:08:24;4.23;;;1.30;;
14139;SDS011;7150;53.514;9.988;2023-04-03T12:14:12;4.17;;;0.90;;
14139;SDS011;7150;53.514;9.988;2023-04-03T12:16:30;2.63;;;1.00;;
14139;SDS011;7150;53.514;9.988;2023-04-03T12:24:22;2.53;;;0.90;;
14139;SDS011;7150;53.514;9.988;2023-04-03T12:37:37;2.50;;;0.90;;
14139;SDS011;7150;53.514;9.988;2023-04-03T12:43:14;2.90;;;1.00;;
14139;SDS011;7150;53.514;9.988;2023-04-03T12:46:10;1.93;;;1.17;;
14139;SDS011;7150;53.514;9.988;2023-04-03T12:51:09;2.00;;;1.03;;
14139;SDS011;7150;53.514;9.988;2023-04-03T12:53:44;1.87;;;0.77;;
14139;SDS011;7150;53.514;9.988;2023-04-03T12:56:27;2.77;;;1.17;;
14139;SDS011;7150;53.514;9.988;2023-04-03T12:58:55;2.47;;;1.00;;
14139;SDS011;7150;53.514;9.988;2023-04-03T13:01:37;2.90;;;0.90;;
14139;SDS011;7150;53.514;9.988;2023-04-03T13:04:02;2.93;;;1.00;;
14139;SDS011;7150;53.514;9.988;2023-04-03T13:06:39;3.03;;;1.10;;
14139;SDS011;7150;53.514;9.988;2023-04-03T13:09:14;1.27;;;0.90;;
14139;SDS011;7150;53.514;9.988;2023-04-03T13:11:48;1.67;;;0.90;;
14139;SDS011;7150;53.514;9.988;2023-04-03T13:14:16;0.70;;;0.50;;
14139;SDS011;7150;53.514;9.988;2023-04-03T13:19:39;2.57;;;1.10;;
14139;SDS011;7150;53.514;9.988;2023-04-03T13:24:51;1.87;;;0.77;;
14139;SDS011;7150;53.514;9.988;2023-04-03T13:27:19;1.93;;;1.03;;
14139;SDS011;7150;53.514;9.988;2023-04-03T13:29:49;3.30;;;1.30;;
14139;SDS011;7150;53.514;9.988;2023-04-03T13:32:20;3.90;;;1.53;;
14139;SDS011;7150;53.514;9.988;2023-04-03T13:34:49;5.47;;;2.80;;
14139;SDS011;7150;53.514;9.988;2023-04-03T13:37:19;3.73;;;1.60;;
14139;SDS011;7150;53.514;9.988;2023-04-03T13:40:10;2.67;;;1.10;;
14139;SDS011;7150;53.514;9.988;2023-04-03T13:42:37;2.00;;;1.00;;
14139;SDS011;7150;53.514;9.988;2023-04-03T13:45:24;1.30;;;1.00;;
14139;SDS011;7150;53.514;9.988;2023-04-03T13:48:05;2.27;;;0.97;;
14139;SDS011;7150;53.514;9.988;2023-04-03T13:50:33;1.63;;;0.90;;
14139;SDS011;7150;53.514;9.988;2023-04-03T13:53:16;2.33;;;1.10;;
14139;SDS011;7150;53.514;9.988;2023-04-03T13:58:33;2.13;;;1.30;;
14139;SDS011;7150;53.514;9.988;2023-04-03T14:01:10;1.90;;;0.80;;
14139;SDS011;7150;53.514;9.988;2023-04-03T14:03:47;1.97;;;0.90;;
14139;SDS011;7150;53.514;9.988;2023-04-03T14:06:21;2.77;;;1.00;;
14139;SDS011;7150;53.514;9.988;2023-04-03T14:08:47;1.80;;;1.37;;
14139;SDS011;7150;53.514;9.988;2023-04-03T14:11:15;2.53;;;1.37;;
14139;SDS011;7150;53.514;9.988;2023-04-03T14:13:43;1.43;;;1.00;;
14139;SDS011;7150;53.514;9.988;2023-04-03T14:16:29;3.43;;;1.30;;
14139;SDS011;7150;53.514;9.988;2023-04-03T14:18:57;1.83;;;0.93;;
14139;SDS011;7150;53.514;9.988;2023-04-03T14:21:23;2.87;;;1.30;;
14139;SDS011;7150;53.514;9.988;2023-04-03T14:23:48;3.03;;;1.27;;
14139;SDS011;7150;53.514;9.988;2023-04-03T14:26:19;1.37;;;1.00;;
14139;SDS011;7150;53.514;9.988;2023-04-03T14:28:47;1.87;;;1.00;;
14139;SDS011;7150;53.514;9.988;2023-04-03T14:31:15;3.13;;;1.37;;
14139;SDS011;7150;53.514;9.988;2023-04-03T14:33:42;2.10;;;0.83;;
14139;SDS011;7150;53.514;9.988;2023-04-03T14:36:15;2.40;;;1.30;;
14139;SDS011;7150;53.514;9.988;2023-04-03T14:38:52;3.30;;;1.13;;
14139;SDS011;7150;53.514;9.988;2023-04-03T14:41:20;3.77;;;1.43;;
14139;SDS011;7150;53.514;9.988;2023-04-03T14:43:48;4.50;;;1.90;;
14139;SDS011;7150;53.514;9.988;2023-04-03T14:46:16;3.97;;;1.33;;
14139;SDS011;7150;53.514;9.988;2023-04-03T14:48:48;1.80;;;1.20;;
14139;SDS011;7150;53.514;9.988;2023-04-03T14:51:14;3.63;;;1.70;;
14139;SDS011;7150;53.514;9.988;2023-04-03T14:53:41;4.47;;;1.53;;
14139;SDS011;7150;53.514;9.988;2023-04-03T14:56:19;4.13;;;1.43;;
14139;SDS011;7150;53.514;9.988;2023-04-03T14:58:49;2.33;;;1.30;;
14139;SDS011;7150;53.514;9.988;2023-04-03T15:01:17;2.53;;;1.70;;
14139;SDS011;7150;53.514;9.988;2023-04-03T15:03:43;2.40;;;2.00;;
14139;SDS011;7150;53.514;9.988;2023-04-03T15:06:10;1.80;;;1.10;;
14139;SDS011;7150;53.514;9.988;2023-04-03T15:08:37;2.63;;;1.60;;
14139;SDS011;7150;53.514;9.988;2023-04-03T15:11:03;1.67;;;0.80;;
14139;SDS011;7150;53.514;9.988;2023-04-03T15:13:28;1.80;;;1.27;;
14139;SDS011;7150;53.514;9.988;2023-04-03T15:15:54;3.20;;;1.20;;
14139;SDS011;7150;53.514;9.988;2023-04-03T15:18:21;1.57;;;1.20;;
14139;SDS011;7150;53.514;9.988;2023-04-03T15:20:49;2.27;;;1.50;;
14139;SDS011;7150;53.514;9.988;2023-04-03T15:23:15;1.53;;;1.10;;
14139;SDS011;7150;53.514;9.988;2023-04-03T15:25:44;3.73;;;1.37;;
14139;SDS011;7150;53.514;9.988;2023-04-03T15:28:34;2.00;;;1.17;;
14139;SDS011;7150;53.514;9.988;2023-04-03T15:31:02;3.47;;;1.20;;
14139;SDS011;7150;53.514;9.988;2023-04-03T15:33:29;2.47;;;1.20;;
14139;SDS011;7150;53.514;9.988;2023-04-03T15:35:55;1.60;;;1.07;;
14139;SDS011;7150;53.514;9.988;2023-04-03T15:38:20;2.40;;;1.33;;
14139;SDS011;7150;53.514;9.988;2023-04-03T15:40:46;3.67;;;1.57;;
14139;SDS011;7150;53.514;9.988;2023-04-03T15:43:12;1.30;;;1.00;;
14139;SDS011;7150;53.514;9.988;2023-04-03T15:45:38;1.47;;;0.80;;
14139;SDS011;7150;53.514;9.988;2023-04-03T15:48:04;2.13;;;1.07;;
14139;SDS011;7150;53.514;9.988;2023-04-03T15:50:34;1.97;;;1.00;;
14139;SDS011;7150;53.514;9.988;2023-04-03T15:53:00;2.50;;;1.30;;
14139;SDS011;7150;53.514;9.988;2023-04-03T15:55:27;1.77;;;1.13;;
14139;SDS011;7150;53.514;9.988;2023-04-03T15:57:54;1.97;;;1.10;;
14139;SDS011;7150;53.514;9.988;2023-04-03T16:00:21;1.87;;;1.10;;
14139;SDS011;7150;53.514;9.988;2023-04-03T16:02:47;2.17;;;1.07;;
14139;SDS011;7150;53.514;9.988;2023-04-03T16:05:16;3.93;;;1.20;;
14139;SDS011;7150;53.514;9.988;2023-04-03T16:07:42;3.70;;;1.03;;
14139;SDS011;7150;53.514;9.988;2023-04-03T16:10:12;3.30;;;1.47;;
14139;SDS011;7150;53.514;9.988;2023-04-03T16:12:39;3.20;;;1.37;;
14139;SDS011;7150;53.514;9.988;2023-04-03T16:15:05;1.33;;;0.80;;
14139;SDS011;7150;53.514;9.988;2023-04-03T16:17:31;1.57;;;0.93;;
14139;SDS011;7150;53.514;9.988;2023-04-03T16:19:58;3.50;;;1.10;;
14139;SDS011;7150;53.514;9.988;2023-04-03T16:22:26;3.07;;;1.40;;
14139;SDS011;7150;53.514;9.988;2023-04-03T16:24:53;4.30;;;1.40;;
14139;SDS011;7150;53.514;9.988;2023-04-03T16:27:19;1.97;;;1.17;;
14139;SDS011;7150;53.514;9.988;2023-04-03T16:29:45;2.00;;;1.00;;
14139;SDS011;7150;53.514;9.988;2023-04-03T16:32:11;2.87;;;1.20;;
14139;SDS011;7150;53.514;9.988;2023-04-03T16:34:37;2.00;;;1.17;;